Time;durP1;ratioP1;P1;durP2;ratioP2;P2;SDS_P1;SDS_P2;PMS_P1;PMS_P2;Temp;Humidity;BMP_temperature;BMP_pressure;BME280_temperature;BME280_humidity;BME280_pressure;Samples;Min_cycle;Max_cycle;Signal;HPM_P1;HPM_P2
2022/07/06 00:02:03;;;;;;;8.82;2.75;;;;;;;22.33;100.00;94557.00;4947198;28;20026;-92
2022/07/06 00:04:29;;;;;;;9.57;2.80;;;;;;;21.90;100.00;94562.66;4962210;28;20022;-91
2022/07/06 00:06:54;;;;;;;9.43;2.90;;;;;;;21.95;100.00;94558.94;4946674;28;20095;-92
2022/07/06 00:09:20;;;;;;;13.95;3.13;;;;;;;22.12;100.00;94561.38;4946901;28;20026;-91
2022/07/06 00:11:45;;;;;;;11.65;2.78;;;;;;;21.97;100.00;94560.19;4962618;28;20035;-92
2022/07/06 00:14:11;;;;;;;8.38;2.60;;;;;;;22.17;100.00;94558.47;4962227;28;20023;-92
2022/07/06 00:16:37;;;;;;;10.77;2.65;;;;;;;22.11;100.00;94554.50;4946840;28;20046;-91
2022/07/06 00:19:02;;;;;;;7.35;3.05;;;;;;;22.14;100.00;94553.81;4946661;28;20046;-91
2022/07/06 00:21:29;;;;;;;6.70;2.42;;;;;;;22.20;100.00;94549.03;4946728;28;20033;-91
2022/07/06 00:23:55;;;;;;;12.95;3.08;;;;;;;21.96;100.00;94547.94;4946084;28;20054;-91
2022/07/06 00:26:20;;;;;;;9.00;2.75;;;;;;;22.11;100.00;94545.72;4946356;28;20035;-91
2022/07/06 00:28:46;;;;;;;5.82;2.47;;;;;;;22.22;100.00;94546.81;4962175;28;20027;-92
2022/07/06 00:31:11;;;;;;;14.65;3.08;;;;;;;22.30;100.00;94550.44;4946459;28;20455;-91
2022/07/06 00:33:37;;;;;;;10.43;3.17;;;;;;;21.56;100.00;94552.06;4978257;28;20090;-91
2022/07/06 00:36:03;;;;;;;9.55;3.55;;;;;;;21.49;100.00;94548.41;4962029;28;20030;-91
2022/07/06 00:38:29;;;;;;;8.50;3.00;;;;;;;21.40;100.00;94551.94;4946093;28;20038;-91
2022/07/06 00:40:54;;;;;;;16.15;2.88;;;;;;;21.41;100.00;94542.81;4961853;28;20034;-91
2022/07/06 00:43:20;;;;;;;11.38;3.00;;;;;;;21.48;100.00;94539.59;4961761;28;20419;-91
2022/07/06 00:45:45;;;;;;;11.00;2.97;;;;;;;21.35;100.00;94543.38;4956629;29;20352;-91
2022/07/06 00:48:12;;;;;;;13.02;3.67;;;;;;;21.43;100.00;94543.25;4942536;29;20063;-92
2022/07/06 00:50:37;;;;;;;12.90;3.72;;;;;;;21.47;100.00;94549.50;4942679;29;20027;-92
2022/07/06 00:53:05;;;;;;;15.55;3.20;;;;;;;21.29;100.00;94556.91;4941509;29;20352;-92
2022/07/06 00:55:39;;;;;;;10.25;2.92;;;;;;;21.18;100.00;94563.78;4926635;29;20031;-91
2022/07/06 00:58:05;;;;;;;7.78;2.63;;;;;;;21.55;100.00;94565.72;4942949;29;20019;-92
2022/07/06 01:00:32;;;;;;;10.88;3.15;;;;;;;21.40;100.00;94564.50;4926835;29;20027;-91
2022/07/06 01:02:57;;;;;;;7.60;3.53;;;;;;;20.79;100.00;94565.84;4942465;29;20027;-91
2022/07/06 01:05:23;;;;;;;11.02;2.60;;;;;;;21.10;100.00;94562.75;4926774;29;20027;-92
2022/07/06 01:07:53;;;;;;;9.82;3.20;;;;;;;21.49;100.00;94567.81;4942256;29;20086;-92
2022/07/06 01:10:20;;;;;;;11.40;2.80;;;;;;;21.67;100.00;94562.31;4927058;29;20408;-91
2022/07/06 01:12:46;;;;;;;8.25;2.65;;;;;;;21.46;100.00;94563.16;4926354;29;20392;-91
2022/07/06 01:15:23;;;;;;;7.03;2.80;;;;;;;21.33;100.00;94571.13;4926413;29;20030;-92
2022/07/06 01:17:48;;;;;;;8.07;3.15;;;;;;;21.46;100.00;94577.28;4942154;29;20026;-91
2022/07/06 01:20:22;;;;;;;8.38;2.90;;;;;;;21.56;100.00;94567.25;4942093;29;20027;-91
2022/07/06 01:22:49;;;;;;;9.45;2.88;;;;;;;21.28;100.00;94574.03;4926315;29;20156;-92
2022/07/06 01:25:15;;;;;;;9.02;3.40;;;;;;;21.12;100.00;94565.88;4926368;29;20133;-92
2022/07/06 01:27:42;;;;;;;15.88;2.95;;;;;;;21.25;100.00;94563.25;4959018;29;20023;-91
2022/07/06 01:30:15;;;;;;;9.98;3.63;;;;;;;21.11;100.00;94566.22;4926283;29;20309;-91
2022/07/06 01:32:41;;;;;;;8.80;3.00;;;;;;;21.35;100.00;94570.03;4926400;29;20023;-91
2022/07/06 01:35:08;;;;;;;7.85;3.10;;;;;;;21.38;100.00;94572.81;4926091;29;20054;-92
2022/07/06 01:37:33;;;;;;;10.27;2.60;;;;;;;21.40;100.00;94575.16;4941750;29;20351;-91
2022/07/06 01:40:00;;;;;;;15.02;3.50;;;;;;;21.22;100.00;94579.88;4958883;29;20027;-90
2022/07/06 01:42:26;;;;;;;8.38;3.22;;;;;;;21.52;100.00;94585.84;4941852;29;20030;-91
2022/07/06 01:44:51;;;;;;;9.77;3.85;;;;;;;21.28;100.00;94581.22;4958771;29;20027;-93
2022/07/06 01:47:17;;;;;;;15.23;5.20;;;;;;;20.99;100.00;94583.72;4959230;29;20078;-91
2022/07/06 01:49:42;;;;;;;20.40;7.13;;;;;;;20.91;100.00;94581.91;4941592;29;20027;-92
2022/07/06 01:52:08;;;;;;;16.35;7.85;;;;;;;20.77;100.00;94582.16;4941462;29;20030;-91
2022/07/06 01:54:33;;;;;;;19.50;10.05;;;;;;;20.49;100.00;94588.03;4958690;29;20352;-91
2022/07/06 01:56:58;;;;;;;26.58;12.65;;;;;;;20.51;100.00;94588.47;4941539;29;20100;-91
2022/07/06 01:59:24;;;;;;;22.98;11.77;;;;;;;20.52;100.00;94587.38;4958665;29;20355;-91
2022/07/06 02:01:49;;;;;;;26.98;11.02;;;;;;;20.48;100.00;94584.59;4941885;29;20023;-91
2022/07/06 02:04:15;;;;;;;24.40;13.27;;;;;;;20.34;100.00;94592.03;4925612;29;20106;-92
2022/07/06 02:06:40;;;;;;;30.27;13.90;;;;;;;20.15;100.00;94595.13;4941625;29;20336;-89
2022/07/06 02:09:06;;;;;;;22.08;13.00;;;;;;;20.36;100.00;94599.72;4925969;29;20327;-91
2022/07/06 02:11:31;;;;;;;22.45;12.65;;;;;;;20.38;100.00;94595.63;4925717;29;20023;-91
2022/07/06 02:13:57;;;;;;;22.33;13.10;;;;;;;20.57;100.00;94610.38;4941322;29;20030;-91
2022/07/06 02:16:22;;;;;;;22.00;13.75;;;;;;;20.29;100.00;94610.88;4941176;29;20023;-91
2022/07/06 02:18:48;;;;;;;26.50;12.35;;;;;;;20.53;100.00;94618.22;4941118;29;20027;-91
2022/07/06 02:21:19;;;;;;;23.52;13.63;;;;;;;20.51;100.00;94611.63;4958325;29;20027;-91
2022/07/06 02:23:45;;;;;;;24.05;14.85;;;;;;;20.35;100.00;94614.88;4941514;29;20325;-91
2022/07/06 02:26:10;;;;;;;24.20;15.98;;;;;;;20.15;100.00;94614.53;4925616;29;20046;-91
2022/07/06 02:28:39;;;;;;;23.58;14.25;;;;;;;20.38;100.00;94621.44;4958143;28;20344;-90
2022/07/06 02:31:04;;;;;;;23.40;13.20;;;;;;;20.43;100.00;94631.91;4976103;28;20031;-91
2022/07/06 02:33:30;;;;;;;30.38;14.82;;;;;;;20.16;100.00;94629.41;4944907;29;20038;-91
2022/07/06 02:35:56;;;;;;;22.98;15.00;;;;;;;19.77;100.00;94629.41;4930620;28;20129;-91
2022/07/06 02:38:21;;;;;;;22.42;13.30;;;;;;;20.10;100.00;94638.69;4950465;29;20035;-91
2022/07/06 02:40:47;;;;;;;22.98;15.50;;;;;;;20.13;100.00;94639.91;4941076;29;20086;-91
2022/07/06 02:43:47;;;;;;;19.40;13.63;;;;;;;19.74;100.00;94650.53;4940868;29;20035;-91
2022/07/06 02:46:12;;;;;;;25.63;14.02;;;;;;;19.36;100.00;94642.19;4974341;28;20034;-91
2022/07/06 02:48:38;;;;;;;21.17;12.18;;;;;;;19.29;100.00;94638.47;4960394;28;20435;-91
2022/07/06 02:51:03;;;;;;;24.25;13.38;;;;;;;19.70;100.00;94644.28;4960270;28;20436;-91
2022/07/06 02:53:29;;;;;;;23.85;13.60;;;;;;;19.58;100.00;94644.94;4959319;28;20026;-92
2022/07/06 02:55:54;;;;;;;21.52;12.82;;;;;;;19.39;100.00;94653.31;4977543;28;20030;-92
2022/07/06 02:58:19;;;;;;;31.00;14.68;;;;;;;19.47;100.00;94657.81;4977322;28;20026;-91
2022/07/06 03:00:45;;;;;;;22.80;11.50;;;;;;;19.15;100.00;94647.41;4977311;28;20451;-91
2022/07/06 03:03:10;;;;;;;20.58;11.27;;;;;;;19.00;100.00;94648.66;4959943;28;20027;-91
2022/07/06 03:05:36;;;;;;;20.60;11.05;;;;;;;19.32;100.00;94654.56;4977235;28;20049;-90
2022/07/06 03:08:01;;;;;;;22.50;12.93;;;;;;;19.51;100.00;94658.75;4959923;28;20593;-92
2022/07/06 03:10:27;;;;;;;20.92;9.82;;;;;;;19.71;100.00;94667.13;4977251;28;20027;-92
2022/07/06 03:12:52;;;;;;;16.90;10.13;;;;;;;19.50;100.00;94670.44;4977666;28;20035;-91
2022/07/06 03:15:17;;;;;;;18.48;10.23;;;;;;;19.31;100.00;94670.81;4977307;28;20027;-91
2022/07/06 03:17:43;;;;;;;20.90;10.52;;;;;;;19.29;100.00;94678.31;4947293;28;20491;-91
2022/07/06 03:20:08;;;;;;;21.20;10.40;;;;;;;19.64;100.00;94681.66;4980640;28;20342;-92
2022/07/06 03:22:41;;;;;;;26.50;11.95;;;;;;;19.43;100.00;94673.59;4947266;28;20126;-92
2022/07/06 03:25:07;;;;;;;23.10;12.83;;;;;;;19.73;100.00;94686.97;4948494;28;20027;-91
2022/07/06 03:27:33;;;;;;;18.75;11.70;;;;;;;19.62;100.00;94688.41;4947772;28;20282;-92
2022/07/06 03:29:59;;;;;;;21.13;10.88;;;;;;;19.62;100.00;94681.19;4947534;28;20026;-92
2022/07/06 03:32:24;;;;;;;18.70;12.38;;;;;;;19.32;100.00;94683.78;4980594;28;20057;-92
2022/07/06 03:34:50;;;;;;;18.08;11.40;;;;;;;19.33;100.00;94693.31;4962916;28;20027;-92
2022/07/06 03:37:15;;;;;;;21.02;12.80;;;;;;;19.55;100.00;94690.75;4963400;28;20066;-91
2022/07/06 03:39:40;;;;;;;22.25;12.80;;;;;;;19.64;100.00;94694.19;4963266;28;20518;-91
2022/07/06 03:42:06;;;;;;;23.55;13.45;;;;;;;19.72;100.00;94689.94;4947111;28;20030;-91
2022/07/06 03:44:31;;;;;;;18.73;13.38;;;;;;;19.73;100.00;94678.22;4962552;28;20035;-92
2022/07/06 03:46:57;;;;;;;26.23;13.40;;;;;;;19.75;100.00;94694.63;4962811;28;20420;-91
2022/07/06 03:49:26;;;;;;;18.85;12.70;;;;;;;19.73;100.00;94696.81;4962798;28;20035;-91
2022/07/06 03:51:52;;;;;;;21.83;13.82;;;;;;;19.31;100.00;94705.34;4963533;28;20023;-92
2022/07/06 03:54:17;;;;;;;30.25;16.45;;;;;;;18.92;100.00;94708.59;4979914;28;20038;-92
2022/07/06 03:56:43;;;;;;;21.25;15.00;;;;;;;19.30;100.00;94712.53;4980016;28;20030;-92
2022/07/06 03:59:08;;;;;;;32.00;15.93;;;;;;;19.27;100.00;94707.06;4979960;28;20031;-92
2022/07/06 04:01:34;;;;;;;25.60;14.30;;;;;;;18.91;100.00;94709.69;4962644;28;20026;-88
2022/07/06 04:03:59;;;;;;;23.83;14.55;;;;;;;18.89;100.00;94709.25;4979638;28;20344;-86
2022/07/06 04:06:25;;;;;;;23.33;13.52;;;;;;;19.07;100.00;94706.59;4979576;28;20030;-88
2022/07/06 04:08:50;;;;;;;24.38;14.10;;;;;;;19.41;100.00;94712.97;4979975;28;20027;-87
2022/07/06 04:11:15;;;;;;;23.48;13.50;;;;;;;18.96;100.00;94718.59;4962752;28;20400;-87
2022/07/06 04:13:41;;;;;;;24.98;13.70;;;;;;;19.25;100.00;94718.00;4962233;28;20035;-87
2022/07/06 04:16:07;;;;;;;29.77;16.08;;;;;;;19.56;100.00;94708.25;4946694;28;20432;-87
2022/07/06 04:18:33;;;;;;;23.00;13.95;;;;;;;19.31;100.00;94713.31;4962848;28;20375;-87
2022/07/06 04:20:58;;;;;;;24.25;15.32;;;;;;;19.22;100.00;94710.66;4962861;28;20042;-86
2022/07/06 04:23:24;;;;;;;30.70;20.50;;;;;;;19.33;100.00;94711.13;4961584;28;20041;-87
2022/07/06 04:25:50;;;;;;;41.08;20.58;;;;;;;19.29;100.00;94710.97;4979691;28;20105;-86
2022/07/06 04:28:15;;;;;;;32.67;21.10;;;;;;;19.66;100.00;94705.28;4960929;28;20116;-87
2022/07/06 04:30:41;;;;;;;31.98;20.77;;;;;;;19.62;100.00;94702.47;4961955;28;20027;-87
2022/07/06 04:33:06;;;;;;;41.60;19.38;;;;;;;19.23;100.00;94711.44;4979084;28;20439;-87
2022/07/06 04:35:32;;;;;;;29.70;17.92;;;;;;;19.39;100.00;94709.09;4962199;28;20038;-87
2022/07/06 04:37:57;;;;;;;41.75;19.85;;;;;;;19.50;100.00;94707.66;4962324;28;20034;-88
2022/07/06 04:40:23;;;;;;;24.50;15.15;;;;;;;19.94;100.00;94712.09;4962282;28;20038;-88
2022/07/06 04:42:48;;;;;;;26.70;16.95;;;;;;;19.82;100.00;94715.41;4979115;28;20035;-87
2022/07/06 04:45:14;;;;;;;36.45;17.80;;;;;;;19.53;100.00;94720.31;4961936;28;20031;-88
2022/07/06 04:47:39;;;;;;;27.33;19.67;;;;;;;19.44;100.00;94709.72;4946146;28;20041;-88
2022/07/06 04:50:05;;;;;;;30.15;17.48;;;;;;;19.48;100.00;94707.19;4962110;28;20439;-88
2022/07/06 04:52:31;;;;;;;24.67;16.17;;;;;;;19.95;100.00;94711.78;4961243;28;20031;-88
2022/07/06 04:54:57;;;;;;;37.33;16.73;;;;;;;20.16;100.00;94703.13;4945673;28;20502;-88
2022/07/06 04:57:22;;;;;;;28.52;17.25;;;;;;;20.72;100.00;94692.28;4962047;28;20093;-90
2022/07/06 04:59:48;;;;;;;21.13;15.27;;;;;;;20.98;100.00;94693.22;4961742;28;20086;-89
2022/07/06 05:02:13;;;;;;;27.83;13.90;;;;;;;20.84;100.00;94698.84;4961701;28;20031;-88
2022/07/06 05:04:39;;;;;;;23.60;13.38;;;;;;;20.82;100.00;94695.72;4954810;28;20066;-88
2022/07/06 05:07:04;;;;;;;22.98;13.95;;;;;;;19.78;100.00;94693.97;4961667;28;20436;-89
2022/07/06 05:09:29;;;;;;;21.30;11.82;;;;;;;19.84;100.00;94702.56;4945591;28;20031;-87
2022/07/06 05:11:55;;;;;;;23.20;14.88;;;;;;;19.56;100.00;94703.75;4961554;28;20049;-88
2022/07/06 05:14:20;;;;;;;29.30;14.60;;;;;;;19.50;100.00;94716.41;4961216;28;20034;-89
2022/07/06 05:16:46;;;;;;;23.80;13.80;;;;;;;19.54;100.00;94705.94;4945743;28;20027;-88
2022/07/06 05:19:11;;;;;;;23.23;14.63;;;;;;;19.41;100.00;94712.97;4961629;28;20072;-88
2022/07/06 05:21:37;;;;;;;25.08;13.63;;;;;;;19.51;100.00;94709.22;4979029;28;20057;-88
2022/07/06 05:24:02;;;;;;;24.33;14.02;;;;;;;20.09;100.00;94703.63;4971734;28;20038;-87
2022/07/06 05:26:28;;;;;;;23.05;11.88;;;;;;;20.62;100.00;94706.78;4942246;29;20476;-87
2022/07/06 05:28:53;;;;;;;19.40;11.23;;;;;;;20.85;100.00;94706.47;4954899;28;20041;-88
2022/07/06 05:31:18;;;;;;;16.58;9.40;;;;;;;21.02;100.00;94705.56;4945553;28;20031;-88
2022/07/06 05:33:44;;;;;;;15.40;10.23;;;;;;;21.39;100.00;94706.84;4977983;28;20105;-86
2022/07/06 05:36:09;;;;;;;20.52;12.20;;;;;;;21.49;100.00;94710.97;4978391;28;20435;-87
2022/07/06 05:38:35;;;;;;;21.08;12.13;;;;;;;21.36;100.00;94708.28;4944922;28;20038;-87
2022/07/06 05:41:00;;;;;;;22.17;11.00;;;;;;;21.46;100.00;94720.41;4961835;28;20031;-87
2022/07/06 05:43:26;;;;;;;18.10;11.45;;;;;;;21.54;100.00;94719.56;4972615;28;20039;-87
2022/07/06 05:45:51;;;;;;;19.88;12.05;;;;;;;21.29;100.00;94719.47;4949450;28;20034;-87
2022/07/06 05:51:00;;;;;;;25.90;12.38;;;;;;;21.62;100.00;94723.25;4978243;28;20148;-87
2022/07/06 05:53:26;;;;;;;25.63;11.80;;;;;;;21.33;100.00;94720.34;4945081;28;20121;-87
2022/07/06 05:55:54;;;;;;;22.30;12.00;;;;;;;21.86;100.00;94721.75;4960729;28;20026;-87
2022/07/06 05:58:27;;;;;;;19.00;10.05;;;;;;;21.83;100.00;94728.53;4978007;28;20045;-88
2022/07/06 06:00:52;;;;;;;25.02;12.02;;;;;;;21.36;100.00;94731.47;4946074;28;20457;-88
2022/07/06 06:03:20;;;;;;;28.20;11.10;;;;;;;21.89;100.00;94731.78;4960689;28;20093;-88
2022/07/06 06:05:48;;;;;;;22.17;11.75;;;;;;;21.45;100.00;94740.97;4961760;28;20027;-87
2022/07/06 06:08:15;;;;;;;21.85;12.10;;;;;;;21.81;100.00;94741.44;4944898;28;20026;-88
2022/07/06 06:10:43;;;;;;;12.48;6.65;;;;;;;21.80;100.00;94739.09;4961320;28;20046;-88
2022/07/06 06:13:09;;;;;;;15.50;8.05;;;;;;;22.31;100.00;94744.16;4960723;28;20030;-88
2022/07/06 06:15:34;;;;;;;13.20;8.57;;;;;;;22.63;100.00;94748.97;4978233;28;20065;-87
2022/07/06 06:18:00;;;;;;;15.80;8.25;;;;;;;22.73;100.00;94753.84;4960741;28;20027;-88
2022/07/06 06:20:26;;;;;;;16.92;9.52;;;;;;;22.78;100.00;94750.16;4978171;28;20039;-86
2022/07/06 06:22:53;;;;;;;18.67;9.18;;;;;;;22.27;100.00;94753.94;4977433;28;20109;-87
2022/07/06 06:25:20;;;;;;;17.77;8.50;;;;;;;22.64;100.00;94763.88;4944852;28;20027;-88
2022/07/06 06:27:46;;;;;;;15.32;9.52;;;;;;;22.81;100.00;94765.50;4960981;28;20114;-87
2022/07/06 06:30:12;;;;;;;22.10;9.80;;;;;;;22.71;100.00;94759.53;4960601;28;20109;-87
2022/07/06 06:32:42;;;;;;;13.93;8.95;;;;;;;22.91;100.00;94759.72;4961481;28;20034;-87
2022/07/06 06:35:08;;;;;;;16.98;10.05;;;;;;;22.96;100.00;94762.19;4963628;28;20442;-87
2022/07/06 06:37:36;;;;;;;16.42;9.50;;;;;;;22.76;100.00;94769.22;4945796;28;20026;-87
2022/07/06 06:40:03;;;;;;;15.93;9.15;;;;;;;22.89;100.00;94769.97;4962634;28;20337;-88
2022/07/06 06:42:28;;;;;;;13.05;6.88;;;;;;;22.94;100.00;94772.41;4960849;28;20114;-87
2022/07/06 06:44:54;;;;;;;10.02;5.88;;;;;;;22.22;100.00;94772.81;4978339;28;20037;-88
2022/07/06 06:47:22;;;;;;;19.38;8.85;;;;;;;22.48;100.00;94767.22;4961362;28;20113;-88
2022/07/06 06:49:47;;;;;;;22.92;11.43;;;;;;;22.53;100.00;94772.34;4977904;28;20027;-87
2022/07/06 06:52:13;;;;;;;25.48;11.25;;;;;;;22.30;100.00;94769.28;4963705;28;20038;-89
2022/07/06 06:54:41;;;;;;;18.65;9.95;;;;;;;22.21;100.00;94782.75;4948480;28;20034;-87
2022/07/06 06:57:24;;;;;;;18.25;10.23;;;;;;;22.33;100.00;94778.53;4933586;28;20026;-87
2022/07/06 06:59:49;;;;;;;16.60;9.52;;;;;;;22.60;100.00;94777.13;4964634;28;20161;-88
2022/07/06 07:02:15;;;;;;;17.88;9.75;;;;;;;23.04;100.00;94775.72;4964593;28;20101;-87
2022/07/06 07:04:42;;;;;;;14.95;9.73;;;;;;;22.95;100.00;94776.63;4948587;28;20034;-88
2022/07/06 07:07:08;;;;;;;18.83;11.90;;;;;;;23.01;100.00;94766.50;4964451;28;20347;-88
2022/07/06 07:09:33;;;;;;;17.35;10.43;;;;;;;23.65;100.00;94768.66;4963978;28;20030;-89
2022/07/06 07:11:58;;;;;;;14.52;9.00;;;;;;;24.36;100.00;94766.25;4963764;28;20336;-88
2022/07/06 07:14:24;;;;;;;16.20;9.50;;;;;;;24.69;100.00;94772.38;4963594;28;20070;-88
2022/07/06 07:16:49;;;;;;;13.95;8.75;;;;;;;24.32;100.00;94770.75;4963709;28;20050;-90
2022/07/06 07:19:15;;;;;;;15.20;8.43;;;;;;;24.61;100.00;94768.00;4963331;28;20031;-89
2022/07/06 07:21:41;;;;;;;12.73;8.60;;;;;;;24.81;100.00;94776.88;4947961;28;20054;-90
2022/07/06 07:24:07;;;;;;;10.25;7.50;;;;;;;24.58;100.00;94769.47;4962937;28;20030;-90
2022/07/06 07:26:33;;;;;;;13.77;8.23;;;;;;;24.87;100.00;94772.03;4962183;28;20329;-89
2022/07/06 07:28:58;;;;;;;10.07;6.68;;;;;;;24.71;100.00;94773.59;4963357;28;20069;-89
2022/07/06 07:31:24;;;;;;;14.38;8.60;;;;;;;24.10;100.00;94764.91;4963491;28;20351;-89
2022/07/06 07:33:49;;;;;;;15.40;8.40;;;;;;;24.32;100.00;94769.97;4962945;28;20026;-89
2022/07/06 07:36:14;;;;;;;14.00;6.72;;;;;;;24.46;100.00;94773.03;4947303;28;20047;-89
2022/07/06 07:38:40;;;;;;;12.65;7.63;;;;;;;24.35;100.00;94769.31;4947404;28;20027;-89
2022/07/06 07:41:06;;;;;;;12.15;7.45;;;;;;;24.06;100.00;94765.94;4963252;28;20448;-89
2022/07/06 07:43:31;;;;;;;17.17;7.80;;;;;;;23.29;100.00;94769.25;4957749;28;20428;-90
2022/07/06 07:45:57;;;;;;;20.30;7.22;;;;;;;23.40;100.00;94769.53;4943733;29;20034;-89
2022/07/06 07:48:22;;;;;;;13.57;6.43;;;;;;;23.80;100.00;94759.13;4943862;29;20043;-89
2022/07/06 07:50:47;;;;;;;11.73;6.07;;;;;;;24.88;100.00;94752.13;4928486;29;20031;-91
2022/07/06 07:53:13;;;;;;;11.35;5.40;;;;;;;24.85;100.00;94759.75;4961790;28;20443;-89
2022/07/06 07:55:38;;;;;;;11.90;5.43;;;;;;;24.89;100.00;94756.38;4963594;28;20321;-90
2022/07/06 07:58:04;;;;;;;13.77;5.03;;;;;;;24.94;100.00;94758.78;4979953;28;20027;-89
2022/07/06 08:00:29;;;;;;;13.25;5.20;;;;;;;25.34;100.00;94764.97;4962852;28;20506;-90
2022/07/06 08:02:57;;;;;;;11.82;5.13;;;;;;;25.29;100.00;94767.94;4962009;28;20043;-89
2022/07/06 08:05:22;;;;;;;10.05;4.75;;;;;;;24.79;100.00;94771.09;4962444;28;20452;-88
2022/07/06 08:07:48;;;;;;;12.30;5.03;;;;;;;24.79;100.00;94763.84;4943130;29;20090;-89
2022/07/06 08:10:13;;;;;;;12.55;4.85;;;;;;;25.36;100.00;94768.84;4943879;29;20046;-89
2022/07/06 08:12:39;;;;;;;9.02;4.65;;;;;;;25.73;100.00;94764.97;4927432;29;20078;-90
2022/07/06 08:15:05;;;;;;;7.88;4.40;;;;;;;25.31;100.00;94763.00;4942550;29;20034;-88
2022/07/06 08:17:31;;;;;;;12.20;5.05;;;;;;;24.45;100.00;94759.97;4943151;29;20419;-87
2022/07/06 08:19:57;;;;;;;12.82;5.22;;;;;;;25.22;100.00;94763.19;4942899;29;20126;-88
2022/07/06 08:22:22;;;;;;;14.43;4.28;;;;;;;25.75;100.00;94765.41;4928869;28;20562;-88
2022/07/06 08:24:48;;;;;;;11.15;4.30;;;;;;;26.63;100.00;94770.31;4961965;28;20089;-89
2022/07/06 08:27:17;;;;;;;16.23;5.45;;;;;;;25.24;100.00;94766.31;4961721;28;20109;-89
2022/07/06 08:29:42;;;;;;;11.02;4.03;;;;;;;25.58;100.00;94768.53;4962872;28;20042;-90
2022/07/06 08:32:08;;;;;;;12.32;4.68;;;;;;;26.06;100.00;94771.69;4962093;28;20034;-89
2022/07/06 08:34:33;;;;;;;8.80;4.30;;;;;;;25.60;100.00;94779.69;4961732;28;20178;-90
2022/07/06 08:36:58;;;;;;;13.65;4.70;;;;;;;26.30;100.00;94779.78;4946170;28;20026;-89
2022/07/06 08:39:24;;;;;;;9.18;4.38;;;;;;;26.43;100.00;94783.06;4962249;28;20359;-88
2022/07/06 08:41:51;;;;;;;8.82;4.00;;;;;;;25.94;100.00;94782.59;4945302;28;20202;-90
2022/07/06 08:44:18;;;;;;;14.65;4.65;;;;;;;25.57;100.00;94791.88;4978740;28;20037;-90
2022/07/06 08:46:44;;;;;;;6.95;3.60;;;;;;;25.91;100.00;94792.16;4961715;28;20035;-90
2022/07/06 08:49:13;;;;;;;7.43;3.85;;;;;;;24.97;100.00;94783.00;4946031;28;20069;-89
2022/07/06 08:51:45;;;;;;;10.63;3.83;;;;;;;26.39;100.00;94789.13;4962062;28;20035;-88
2022/07/06 08:54:11;;;;;;;8.10;3.17;;;;;;;26.37;100.00;94791.41;4961428;28;20034;-90
2022/07/06 08:56:36;;;;;;;9.85;3.90;;;;;;;26.64;100.00;94782.63;4945888;28;20057;-89
2022/07/06 08:59:02;;;;;;;11.07;3.40;;;;;;;27.74;100.00;94783.72;4961962;28;20049;-89
2022/07/06 09:01:27;;;;;;;7.78;3.22;;;;;;;28.43;100.00;94783.63;4979367;28;20042;-90
2022/07/06 09:03:54;;;;;;;15.38;4.28;;;;;;;26.52;100.00;94778.19;4960917;28;20030;-88
2022/07/06 09:06:24;;;;;;;14.55;3.80;;;;;;;27.23;100.00;94785.00;4961654;28;20026;-90
2022/07/06 09:08:52;;;;;;;6.65;3.25;;;;;;;27.97;100.00;94788.16;4961714;28;20027;-88
2022/07/06 09:11:17;;;;;;;8.40;2.90;;;;;;;28.07;100.00;94782.09;4978875;28;20026;-88
2022/07/06 09:13:44;;;;;;;11.68;3.63;;;;;;;28.60;100.00;94782.19;4960303;28;20045;-89
2022/07/06 09:16:15;;;;;;;8.80;3.10;;;;;;;26.38;100.00;94792.97;4978535;28;20442;-89
2022/07/06 09:18:44;;;;;;;12.32;3.33;;;;;;;27.02;100.00;94782.81;4978818;28;20427;-89
2022/07/06 09:21:10;;;;;;;14.25;4.00;;;;;;;25.63;100.00;94787.00;4961707;28;20132;-87
2022/07/06 09:23:36;;;;;;;13.57;3.47;;;;;;;26.64;100.00;94788.75;4978622;28;20066;-90
2022/07/06 09:26:03;;;;;;;10.02;3.00;;;;;;;27.79;100.00;94785.31;4961067;28;20056;-88
2022/07/06 09:28:45;;;;;;;12.18;3.00;;;;;;;27.22;100.00;94786.91;4978204;28;20042;-87
2022/07/06 09:31:10;;;;;;;10.48;2.88;;;;;;;27.94;100.00;94787.00;4945331;28;20066;-88
2022/07/06 09:33:36;;;;;;;10.55;3.20;;;;;;;28.39;100.00;94783.56;4978018;28;20451;-90
2022/07/06 09:36:03;;;;;;;11.13;3.10;;;;;;;28.41;100.00;94791.31;4960802;28;20033;-88
2022/07/06 09:38:28;;;;;;;8.10;2.63;;;;;;;27.86;100.00;94781.91;4960979;28;20026;-90
2022/07/06 09:40:55;;;;;;;5.93;3.00;;;;;;;28.08;100.00;94788.28;4958523;28;20034;-89
2022/07/06 09:43:22;;;;;;;11.60;3.90;;;;;;;27.31;100.00;94785.88;4977630;28;20062;-88
2022/07/06 09:45:57;;;;;;;8.85;3.08;;;;;;;27.84;100.00;94784.19;4944720;28;20027;-87
2022/07/06 09:48:25;;;;;;;7.85;2.80;;;;;;;28.58;100.00;94798.75;4961044;28;20133;-88
2022/07/06 09:50:58;;;;;;;15.38;3.05;;;;;;;26.99;100.00;94780.84;4960940;28;20388;-88
2022/07/06 09:53:26;;;;;;;9.20;2.75;;;;;;;27.04;100.00;94788.59;4960205;28;20030;-87
2022/07/06 09:55:53;;;;;;;9.45;3.40;;;;;;;27.85;100.00;94785.75;4945193;28;20441;-88
2022/07/06 09:58:19;;;;;;;10.30;2.85;;;;;;;27.99;100.00;94782.41;4960845;28;20105;-87
2022/07/06 10:00:46;;;;;;;7.55;2.80;;;;;;;28.85;100.00;94777.00;4960832;28;20110;-87
2022/07/06 10:03:12;;;;;;;8.32;3.03;;;;;;;28.21;100.00;94786.09;4960448;28;20043;-88
2022/07/06 10:05:40;;;;;;;5.00;2.13;;;;;;;29.81;100.00;94787.88;4960900;28;20443;-88
2022/07/06 10:08:09;;;;;;;10.80;2.47;;;;;;;29.05;100.00;94777.53;4977237;28;20046;-88
2022/07/06 10:10:35;;;;;;;10.98;2.60;;;;;;;29.99;100.00;94782.50;4945301;28;20065;-87
2022/07/06 10:13:02;;;;;;;9.50;2.90;;;;;;;29.72;100.00;94772.03;4960312;28;20054;-91
2022/07/06 10:15:32;;;;;;;11.23;2.80;;;;;;;28.60;100.00;94768.72;4960685;28;20491;-88
2022/07/06 10:17:59;;;;;;;17.77;2.70;;;;;;;27.78;100.00;94773.75;4978251;28;20053;-88
2022/07/06 10:20:31;;;;;;;9.93;2.83;;;;;;;27.42;100.00;94781.41;4977938;28;20095;-89
2022/07/06 10:22:59;;;;;;;8.02;2.35;;;;;;;27.39;100.00;94782.09;4960564;28;20049;-86
2022/07/06 10:25:26;;;;;;;14.95;3.22;;;;;;;26.55;100.00;94774.81;4979340;28;20050;-87
2022/07/06 10:27:53;;;;;;;9.60;2.80;;;;;;;26.93;100.00;94767.69;4960372;29;20083;-87
2022/07/06 10:30:19;;;;;;;12.25;3.40;;;;;;;26.69;100.00;94766.19;4945292;29;20035;-89
2022/07/06 10:32:48;;;;;;;8.55;2.97;;;;;;;26.92;100.00;94763.47;4945078;29;20492;-89
2022/07/06 10:35:16;;;;;;;13.23;3.00;;;;;;;27.24;100.00;94771.19;4945290;29;20039;-90
2022/07/06 10:37:42;;;;;;;9.15;3.10;;;;;;;26.56;100.00;94768.31;4957897;28;20360;-87
2022/07/06 10:43:01;;;;;;;12.38;3.50;;;;;;;27.23;100.00;94758.88;4981096;28;20041;-87
2022/07/06 10:45:26;;;;;;;;;;;;;;;26.85;100.00;94762.56;4965058;28;20026;-87
2022/07/06 10:48:10;;;;;;;10.70;3.00;;;;;;;26.95;100.00;94754.66;4981428;28;19918;-87
2022/07/06 10:50:36;;;;;;;;;;;;;;;27.83;100.00;94766.47;4981654;28;20057;-91
2022/07/06 10:53:02;;;;;;;8.32;3.00;;;;;;;26.82;100.00;94756.78;4963745;28;19953;-88
2022/07/06 10:55:33;;;;;;;11.82;2.95;;;;;;;27.06;100.00;94751.34;4963922;28;20023;-86
2022/07/06 10:58:00;;;;;;;13.10;3.10;;;;;;;27.21;100.00;94749.63;4980518;28;20439;-88
2022/07/06 11:00:26;;;;;;;7.97;2.90;;;;;;;27.17;100.00;94743.41;4963982;28;20310;-89
2022/07/06 11:02:51;;;;;;;18.80;3.42;;;;;;;26.15;100.00;94746.53;4963536;28;20061;-92
2022/07/06 11:05:40;;;;;;;9.75;3.05;;;;;;;25.91;100.00;94756.47;4963918;28;20030;-89
2022/07/06 11:08:10;;;;;;;10.55;3.17;;;;;;;26.21;100.00;94761.22;4970890;28;20096;-89
2022/07/06 11:10:47;;;;;;;11.50;3.10;;;;;;;26.13;100.00;94768.34;4981403;28;20034;-89
2022/07/06 11:13:31;;;;;;;13.70;2.75;;;;;;;26.21;100.00;94761.22;4963418;28;20355;-89
2022/07/06 11:16:05;;;;;;;9.95;3.00;;;;;;;26.48;100.00;94753.19;4981268;28;20121;-88
2022/07/06 11:18:42;;;;;;;9.63;2.67;;;;;;;26.18;100.00;94746.63;4981276;28;20022;-89
2022/07/06 11:21:27;;;;;;;9.05;3.10;;;;;;;26.14;100.00;94736.91;4963590;28;20030;-89